x

South Hatteras - 225 South Of Cape Hatteras (41002) Wave Buoy

5:50pm - Sat 3rd Dec 2016 All times are EST. -5 hours from GMT.

  • Sig Wave height 5.2ft
  • Swell Direction
  • Peak Period 7s
  • Average Period 6s
  • Wind
    13mph, 18mph gusts
  • Sea Temp 73°f
  • 空気 Temp 63°f
  • Sea Pressure 1021mb
  • South Hatteras - 225 South Of Cape Hatteras
  • South Hatteras - 225 South Of Cape Hatteras

More Historic Weather Station data

Upgrade to MSW Pro to gain access to the past 30 days of data for over 8000 Wavebouys and Weather Stations around the globe.

Join Pro

Comparision Forecast

View Surf forecast
   
Sat 12/03 5:50pm 5ft 7s 6s 13 18 mph 1021mb 73f 63f
4:50pm 6ft 7s 6s 18 22 mph 1020.4mb 74f 63f
3:50pm 6ft 7s 6s 16 20 mph 1019.9mb 74f 64f
2:50pm 6ft 7s 6s 16 20 mph 1019.5mb 74f 64f
1:50pm 6ft 7s 6s 16 20 mph 1019.6mb 74f 64f
12:50pm 5ft 6s 5s 16 20 mph 1019.8mb 74f 64f
11:50am 4.5ft 6s 5s 16 20 mph 1020.3mb 74f 65f
10:50am 4.5ft 6s 5s 16 18 mph 1020.6mb 74f 65f
9:50am 4.5ft 6s 5s 16 20 mph 1020.9mb 74f 65f
8:50am 4.5ft 5s  -  18 22 mph 1021.2mb 74f 65f
7:50am 4.5ft 5s 5s 18 25 mph 1019.9mb 74f 65f
6:50am 4.5ft 5s 5s 18 22 mph 1019.2mb 74f 65f
5:50am 4.5ft 6s 5s 18 22 mph 1019.1mb 74f 65f
4:50am 3.5ft 5s 5s 18 22 mph 1019mb 74f 66f
3:50am 4ft 6s 5s 16 20 mph 1018.5mb 74f 65f
2:50am 4ft 6s 5s 16 20 mph 1018.6mb 74f 65f
1:50am 4ft 6s 5s 16 20 mph 1018.6mb 74f 65f
12:50am 4ft 6s 5s 16 20 mph 1018.9mb 74f 66f
Fri 12/02 11:50pm 4ft 6s 5s 18 20 mph 1019mb 74f 67f
10:50pm 4ft 6s 5s 16 20 mph 1018.7mb 74f 67f
9:50pm 4ft 6s 5s 16 20 mph 1018.7mb 74f 68f
7:50pm 4.5ft 6s 5s 16 20 mph 1018.1mb 74f 69f
6:50pm 4ft 6s 5s 11 13 mph 1017.6mb 74f 69f
5:50pm 4.5ft 6s 5s 13 18 mph 1017.7mb 74f 69f
4:50pm 4.5ft 7s 5s 13 20 mph 1017.3mb 74f 70f
3:50pm 4.5ft 6s 5s 16 18 mph 1016.8mb 74f 70f
2:50pm 4.5ft 7s 5s 13 18 mph 1016.5mb 74f 70f
1:50pm 4.5ft 7s 5s 16 20 mph 1016.3mb 74f 70f
12:50pm 4.5ft 6s 5s 13 18 mph 1016.5mb 74f 70f
11:50am 5ft 7s 6s 13 20 mph 1016.9mb 74f 70f
10:50am 5ft 8s 5s 13 16 mph 1017.6mb 74f 71f
9:50am 5ft 7s 6s 13 18 mph 1017.7mb 74f 71f
8:50am 5ft 7s 6s 13 18 mph 1017.2mb 74f 71f
7:50am 5.5ft 7s 5s 16 20 mph 1016.5mb 74f 71f
6:50am 5.5ft 7s 6s 16 20 mph 1015.6mb 74f 72f
5:50am 5.5ft 8s 5s 16 18 mph 1015mb 74f 73f
4:50am 6ft 7s 6s 16 20 mph 1014.3mb 74f 73f
3:50am 6ft 8s 6s 16 18 mph 1013.9mb 74f 73f
2:50am 6.5ft 7s 6s 18 20 mph 1013.9mb 74f 74f
1:50am 6.5ft 8s 6s 20 22 mph 1013.9mb 74f 74f
12:50am 6.5ft 8s 6s 20 25 mph 1013.8mb 74f 74f
Thu 12/01 11:50pm 7ft 7s 6s 16 18 mph 1013.9mb 74f 74f
10:50pm 7ft 8s 6s 16 20 mph 1013.9mb 74f 74f
9:50pm 7ft 8s 6s 16 20 mph 1013.9mb 74f 74f
8:50pm 7.5ft 7s 6s 13
mph
1013.5mb 74f 74f
7:50pm 6.5ft 7s 6s 11 16 mph 1013.5mb 74f 74f
6:50pm 7ft 7s 6s 11 13 mph 1013.4mb 74f 74f
5:50pm 7ft 8s 6s 16 18 mph 1013.1mb 74f 73f
4:50pm 8ft 8s 6s 18 22 mph 1012.4mb 74f 74f
3:50pm 7.5ft 8s 6s 20 25 mph 1012.1mb 74f 74f
2:50pm 7ft 7s 6s 20 27 mph 1012mb 74f 74f
1:50pm 7ft 7s 6s 20 25 mph 1011.9mb 74f 75f
12:50pm 6.5ft 7s 6s 22 27 mph 1012.5mb 74f 74f
11:50am 7.5ft 8s 6s 22 31 mph 1013mb 74f 76f
10:50am 7ft 7s 6s 27 31 mph 1013.8mb 74f 74f
9:50am 7.5ft 6s 6s 25 31 mph 1014.2mb 74f 74f
8:50am 7.5ft 7s 6s 20 25 mph 1014mb 74f 75f
7:50am 7ft 7s 6s 20 25 mph 1013.9mb 74f 74f
6:50am 7ft 7s 6s 20 25 mph 1013.8mb 74f 74f
5:50am 7ft 7s 6s 20 25 mph 1013.6mb 74f 74f
4:50am 7ft 6s 6s 20 25 mph 1013.7mb 74f 74f
3:50am 8ft 7s 6s 22 27 mph 1013.5mb 74f 74f
2:50am 7.5ft 6s 6s 22 27 mph 1014mb 74f 74f
1:50am 8.5ft 7s 6s 25 29 mph 1014mb 74f 74f
12:50am 7ft 6s 6s 22 27 mph 1014.7mb 74f 74f
Wed 11/30 11:50pm 7ft 6s 6s 25 29 mph 1015.3mb 74f 74f
10:50pm 6ft 6s 5s 22 27 mph 1016mb 74f 74f
9:50pm 6.5ft 6s 5s 22 27 mph 1016.4mb 74f 74f
8:50pm 6.5ft 6s 5s 22 25 mph 1016.3mb 74f 74f
7:50pm 6ft 6s 5s 22 27 mph 1016.3mb 74f 74f
6:50pm 6ft 5s 5s 22 29 mph 1015.8mb 74f 74f
5:50pm 6ft 6s 5s 22 27 mph 1015.7mb 74f 74f
4:50pm 6ft 6s 5s 22 25 mph 1015.8mb 74f 74f
3:50pm 5.5ft 6s 5s 20 25 mph 1015.7mb 74f 74f
2:50pm 5ft 6s 5s 20 25 mph 1015.7mb 74f 74f
1:50pm 5.5ft 5s 5s 22 27 mph 1016mb 74f 74f
12:50pm 5ft 6s 5s 20 27 mph 1017mb 74f 74f
11:50am 5ft 6s 5s 20 25 mph 1018mb 74f 74f
10:50am 5ft 7s 5s 22 25 mph 1019.1mb 74f 74f
9:50am 5ft 6s 5s 18 22 mph 1019.6mb 74f 74f
8:50am 5ft 6s 5s 18 22 mph 1019.8mb 74f 73f
7:50am 5ft 7s 5s 18 22 mph 1019.5mb 74f 73f
6:50am 5.5ft 6s 5s 20 25 mph 1019.1mb 74f 73f
5:50am 5ft 7s 5s 18 22 mph 1018.9mb 74f 73f
4:50am 5ft 6s 5s 20 22 mph 1019.1mb 74f 73f
3:50am 6ft 6s 5s 20 22 mph 1019.3mb 74f 73f
2:50am 5ft 6s 5s 18 20 mph 1019.7mb 74f 73f
1:50am 5.5ft 6s 5s 20 22 mph 1020mb 74f 73f
12:50am 5.5ft 7s 5s 20 22 mph 1020.3mb 74f 73f